Yaupon Beach, North Carolina
Current Conditions -  °F | °C
As of 7:35 AM on Friday 24 Oct 2014 (Local Time) from KSUT Reporting Station
Clear Clear  
Wind Chill: 46°   Ceiling: Unl
Heat Index: 48°   Visibility: 10mi
Dew Point: 44°   Wind: 5mph
Humidity: 86%   Direction: 350°N
Pressure: 30.02"   Gusts: NA
Location:  33.9216°N, 78.1244°W
Report Text: KSUT 241135Z AUTO 35004KT 10SM CLR 09/07 A3002 RMK AO2 T00870065
Loading
Personal Weather Stations






























Interactive Weather Map
Tropical Storm Tracking
New forecast layout! Learn more

10-Day Weather Forecast

Advertisements
Track Severe Weather on mobile